sensor_id;sensor_type;location;lat;lon;timestamp;P1;durP1;ratioP1;P2;durP2;ratioP2
78916;SDS011;68315;48.608;11.436;2023-08-06T00:00:17;2.83;;;2.58;;
78916;SDS011;68315;48.608;11.436;2023-08-06T00:02:43;3.28;;;2.33;;
78916;SDS011;68315;48.608;11.436;2023-08-06T00:05:08;3.60;;;2.57;;
78916;SDS011;68315;48.608;11.436;2023-08-06T00:07:33;3.03;;;2.30;;
78916;SDS011;68315;48.608;11.436;2023-08-06T00:09:58;2.88;;;2.58;;
78916;SDS011;68315;48.608;11.436;2023-08-06T00:12:24;2.83;;;2.30;;
78916;SDS011;68315;48.608;11.436;2023-08-06T00:14:52;2.80;;;2.60;;
78916;SDS011;68315;48.608;11.436;2023-08-06T00:17:18;2.38;;;2.17;;
78916;SDS011;68315;48.608;11.436;2023-08-06T00:19:43;2.50;;;2.30;;
78916;SDS011;68315;48.608;11.436;2023-08-06T00:22:08;2.55;;;2.20;;
78916;SDS011;68315;48.608;11.436;2023-08-06T00:24:34;2.78;;;2.22;;
78916;SDS011;68315;48.608;11.436;2023-08-06T00:26:59;2.90;;;2.60;;
78916;SDS011;68315;48.608;11.436;2023-08-06T00:29:25;4.47;;;3.30;;
78916;SDS011;68315;48.608;11.436;2023-08-06T00:31:50;2.83;;;2.45;;
78916;SDS011;68315;48.608;11.436;2023-08-06T00:34:15;3.65;;;2.60;;
78916;SDS011;68315;48.608;11.436;2023-08-06T00:36:41;3.78;;;2.60;;
78916;SDS011;68315;48.608;11.436;2023-08-06T00:39:06;2.95;;;2.65;;
78916;SDS011;68315;48.608;11.436;2023-08-06T00:41:32;3.00;;;2.22;;
78916;SDS011;68315;48.608;11.436;2023-08-06T00:43:57;2.50;;;2.30;;
78916;SDS011;68315;48.608;11.436;2023-08-06T00:46:22;3.38;;;3.08;;
78916;SDS011;68315;48.608;11.436;2023-08-06T00:48:48;4.35;;;3.05;;
78916;SDS011;68315;48.608;11.436;2023-08-06T00:51:15;4.25;;;2.75;;
78916;SDS011;68315;48.608;11.436;2023-08-06T00:53:41;3.15;;;2.85;;
78916;SDS011;68315;48.608;11.436;2023-08-06T00:56:07;5.10;;;3.75;;
78916;SDS011;68315;48.608;11.436;2023-08-06T00:58:34;4.47;;;3.15;;
78916;SDS011;68315;48.608;11.436;2023-08-06T01:01:00;4.07;;;3.67;;
78916;SDS011;68315;48.608;11.436;2023-08-06T01:03:25;3.42;;;3.13;;
78916;SDS011;68315;48.608;11.436;2023-08-06T01:05:51;4.07;;;3.45;;
78916;SDS011;68315;48.608;11.436;2023-08-06T01:08:52;4.75;;;3.60;;
78916;SDS011;68315;48.608;11.436;2023-08-06T01:13:43;3.22;;;2.95;;
78916;SDS011;68315;48.608;11.436;2023-08-06T01:16:13;5.13;;;3.63;;
78916;SDS011;68315;48.608;11.436;2023-08-06T01:18:40;4.35;;;3.95;;
78916;SDS011;68315;48.608;11.436;2023-08-06T01:21:06;5.40;;;3.80;;
78916;SDS011;68315;48.608;11.436;2023-08-06T01:23:32;3.70;;;3.40;;
78916;SDS011;68315;48.608;11.436;2023-08-06T01:26:15;6.05;;;3.80;;
78916;SDS011;68315;48.608;11.436;2023-08-06T01:28:56;3.70;;;3.40;;
78916;SDS011;68315;48.608;11.436;2023-08-06T01:31:32;4.85;;;3.13;;
78916;SDS011;68315;48.608;11.436;2023-08-06T01:34:00;3.78;;;3.38;;
78916;SDS011;68315;48.608;11.436;2023-08-06T01:36:26;2.95;;;2.70;;
78916;SDS011;68315;48.608;11.436;2023-08-06T01:38:53;3.97;;;3.30;;
78916;SDS011;68315;48.608;11.436;2023-08-06T01:41:18;3.53;;;3.22;;
78916;SDS011;68315;48.608;11.436;2023-08-06T01:43:44;3.22;;;2.83;;
78916;SDS011;68315;48.608;11.436;2023-08-06T01:46:09;3.28;;;2.97;;
78916;SDS011;68315;48.608;11.436;2023-08-06T01:48:34;3.75;;;3.40;;
78916;SDS011;68315;48.608;11.436;2023-08-06T01:50:59;4.95;;;2.92;;
78916;SDS011;68315;48.608;11.436;2023-08-06T01:53:25;3.88;;;3.28;;
78916;SDS011;68315;48.608;11.436;2023-08-06T01:55:50;3.78;;;3.38;;
78916;SDS011;68315;48.608;11.436;2023-08-06T01:58:15;3.58;;;2.72;;
78916;SDS011;68315;48.608;11.436;2023-08-06T02:00:41;4.60;;;3.33;;
78916;SDS011;68315;48.608;11.436;2023-08-06T02:03:06;5.25;;;3.60;;
78916;SDS011;68315;48.608;11.436;2023-08-06T02:05:31;4.68;;;3.47;;
78916;SDS011;68315;48.608;11.436;2023-08-06T02:07:57;4.70;;;4.20;;
78916;SDS011;68315;48.608;11.436;2023-08-06T02:10:22;4.20;;;3.80;;
78916;SDS011;68315;48.608;11.436;2023-08-06T02:12:47;5.07;;;4.47;;
78916;SDS011;68315;48.608;11.436;2023-08-06T02:15:12;4.65;;;4.25;;
78916;SDS011;68315;48.608;11.436;2023-08-06T02:17:38;5.97;;;4.28;;
78916;SDS011;68315;48.608;11.436;2023-08-06T02:20:03;4.60;;;4.20;;
78916;SDS011;68315;48.608;11.436;2023-08-06T02:22:29;7.72;;;5.32;;
78916;SDS011;68315;48.608;11.436;2023-08-06T02:24:54;4.30;;;3.90;;
78916;SDS011;68315;48.608;11.436;2023-08-06T02:27:19;5.50;;;4.95;;
78916;SDS011;68315;48.608;11.436;2023-08-06T02:29:44;4.22;;;3.75;;
78916;SDS011;68315;48.608;11.436;2023-08-06T02:32:10;3.42;;;3.10;;
78916;SDS011;68315;48.608;11.436;2023-08-06T02:34:35;3.83;;;3.47;;
78916;SDS011;68315;48.608;11.436;2023-08-06T02:37:00;4.55;;;3.80;;
78916;SDS011;68315;48.608;11.436;2023-08-06T02:39:25;3.60;;;3.28;;
78916;SDS011;68315;48.608;11.436;2023-08-06T02:41:51;3.78;;;3.33;;
78916;SDS011;68315;48.608;11.436;2023-08-06T02:44:16;3.45;;;2.45;;
78916;SDS011;68315;48.608;11.436;2023-08-06T02:46:41;3.63;;;3.17;;
78916;SDS011;68315;48.608;11.436;2023-08-06T02:49:06;2.67;;;2.47;;
78916;SDS011;68315;48.608;11.436;2023-08-06T02:51:32;2.55;;;2.35;;
78916;SDS011;68315;48.608;11.436;2023-08-06T02:53:57;3.60;;;3.10;;
78916;SDS011;68315;48.608;11.436;2023-08-06T02:56:22;3.60;;;3.17;;
78916;SDS011;68315;48.608;11.436;2023-08-06T02:58:47;3.45;;;3.15;;
78916;SDS011;68315;48.608;11.436;2023-08-06T03:01:13;3.55;;;2.90;;
78916;SDS011;68315;48.608;11.436;2023-08-06T03:03:38;4.05;;;3.60;;
78916;SDS011;68315;48.608;11.436;2023-08-06T03:06:04;5.30;;;3.70;;
78916;SDS011;68315;48.608;11.436;2023-08-06T03:08:29;3.40;;;3.08;;
78916;SDS011;68315;48.608;11.436;2023-08-06T03:10:54;3.40;;;3.10;;
78916;SDS011;68315;48.608;11.436;2023-08-06T03:13:20;4.97;;;3.10;;
78916;SDS011;68315;48.608;11.436;2023-08-06T03:15:54;3.70;;;3.25;;
78916;SDS011;68315;48.608;11.436;2023-08-06T03:18:21;6.57;;;5.88;;
78916;SDS011;68315;48.608;11.436;2023-08-06T03:20:46;5.13;;;4.63;;
78916;SDS011;68315;48.608;11.436;2023-08-06T03:23:12;6.97;;;5.65;;
78916;SDS011;68315;48.608;11.436;2023-08-06T03:25:37;6.45;;;5.50;;
78916;SDS011;68315;48.608;11.436;2023-08-06T03:28:03;5.33;;;4.73;;
78916;SDS011;68315;48.608;11.436;2023-08-06T03:30:28;5.88;;;5.22;;
78916;SDS011;68315;48.608;11.436;2023-08-06T03:32:53;5.43;;;4.93;;
78916;SDS011;68315;48.608;11.436;2023-08-06T03:35:18;5.20;;;4.33;;
78916;SDS011;68315;48.608;11.436;2023-08-06T03:37:44;3.80;;;3.47;;
78916;SDS011;68315;48.608;11.436;2023-08-06T03:40:09;3.92;;;3.50;;
78916;SDS011;68315;48.608;11.436;2023-08-06T03:42:35;4.80;;;4.30;;
78916;SDS011;68315;48.608;11.436;2023-08-06T03:45:00;4.30;;;3.37;;
78916;SDS011;68315;48.608;11.436;2023-08-06T03:47:25;3.58;;;3.13;;
78916;SDS011;68315;48.608;11.436;2023-08-06T03:49:50;3.78;;;3.45;;
78916;SDS011;68315;48.608;11.436;2023-08-06T03:52:16;3.80;;;3.25;;
78916;SDS011;68315;48.608;11.436;2023-08-06T03:54:41;4.30;;;3.90;;
78916;SDS011;68315;48.608;11.436;2023-08-06T03:57:08;3.45;;;2.90;;
78916;SDS011;68315;48.608;11.436;2023-08-06T03:59:33;4.38;;;3.60;;
78916;SDS011;68315;48.608;11.436;2023-08-06T04:01:58;4.47;;;3.63;;
78916;SDS011;68315;48.608;11.436;2023-08-06T04:04:24;3.93;;;3.37;;
78916;SDS011;68315;48.608;11.436;2023-08-06T04:06:49;3.30;;;3.00;;
78916;SDS011;68315;48.608;11.436;2023-08-06T04:09:14;4.80;;;4.10;;
78916;SDS011;68315;48.608;11.436;2023-08-06T04:11:39;4.30;;;3.90;;
78916;SDS011;68315;48.608;11.436;2023-08-06T04:14:04;5.15;;;4.32;;
78916;SDS011;68315;48.608;11.436;2023-08-06T04:16:30;4.30;;;3.67;;
78916;SDS011;68315;48.608;11.436;2023-08-06T04:18:55;3.75;;;3.42;;
78916;SDS011;68315;48.608;11.436;2023-08-06T04:21:20;4.03;;;3.45;;
78916;SDS011;68315;48.608;11.436;2023-08-06T04:23:45;3.60;;;2.90;;
78916;SDS011;68315;48.608;11.436;2023-08-06T04:26:11;3.47;;;3.08;;
78916;SDS011;68315;48.608;11.436;2023-08-06T04:28:36;3.70;;;3.40;;
78916;SDS011;68315;48.608;11.436;2023-08-06T04:31:01;3.55;;;3.25;;
78916;SDS011;68315;48.608;11.436;2023-08-06T04:33:26;4.07;;;3.42;;
78916;SDS011;68315;48.608;11.436;2023-08-06T04:35:55;4.40;;;3.17;;
78916;SDS011;68315;48.608;11.436;2023-08-06T04:38:20;4.25;;;2.90;;
78916;SDS011;68315;48.608;11.436;2023-08-06T04:40:46;4.40;;;3.40;;
78916;SDS011;68315;48.608;11.436;2023-08-06T04:43:11;4.43;;;3.80;;
78916;SDS011;68315;48.608;11.436;2023-08-06T04:45:36;4.65;;;4.10;;
78916;SDS011;68315;48.608;11.436;2023-08-06T04:48:01;4.73;;;4.23;;
78916;SDS011;68315;48.608;11.436;2023-08-06T04:50:29;4.85;;;4.07;;
78916;SDS011;68315;48.608;11.436;2023-08-06T04:52:54;4.37;;;3.97;;
78916;SDS011;68315;48.608;11.436;2023-08-06T04:55:20;4.75;;;4.32;;
78916;SDS011;68315;48.608;11.436;2023-08-06T04:57:45;4.87;;;4.40;;
78916;SDS011;68315;48.608;11.436;2023-08-06T05:00:11;4.88;;;4.38;;
78916;SDS011;68315;48.608;11.436;2023-08-06T05:02:36;4.15;;;3.72;;
78916;SDS011;68315;48.608;11.436;2023-08-06T05:05:03;5.10;;;4.05;;
78916;SDS011;68315;48.608;11.436;2023-08-06T05:07:29;4.07;;;3.78;;
78916;SDS011;68315;48.608;11.436;2023-08-06T05:09:54;4.43;;;4.03;;
78916;SDS011;68315;48.608;11.436;2023-08-06T05:12:19;4.63;;;4.20;;
78916;SDS011;68315;48.608;11.436;2023-08-06T05:14:44;5.47;;;4.97;;
78916;SDS011;68315;48.608;11.436;2023-08-06T05:17:10;5.55;;;4.55;;
78916;SDS011;68315;48.608;11.436;2023-08-06T05:19:35;5.43;;;4.72;;
78916;SDS011;68315;48.608;11.436;2023-08-06T05:22:00;4.65;;;4.10;;
78916;SDS011;68315;48.608;11.436;2023-08-06T05:24:27;4.82;;;4.32;;
78916;SDS011;68315;48.608;11.436;2023-08-06T05:26:52;4.35;;;3.72;;
78916;SDS011;68315;48.608;11.436;2023-08-06T05:29:17;4.63;;;4.20;;
78916;SDS011;68315;48.608;11.436;2023-08-06T05:31:42;4.65;;;4.00;;
78916;SDS011;68315;48.608;11.436;2023-08-06T05:34:08;6.03;;;3.70;;
78916;SDS011;68315;48.608;11.436;2023-08-06T05:36:33;5.47;;;4.38;;
78916;SDS011;68315;48.608;11.436;2023-08-06T05:38:58;5.15;;;3.42;;
78916;SDS011;68315;48.608;11.436;2023-08-06T05:41:23;5.40;;;3.43;;
78916;SDS011;68315;48.608;11.436;2023-08-06T05:43:49;3.90;;;3.35;;
78916;SDS011;68315;48.608;11.436;2023-08-06T05:46:14;5.77;;;3.63;;
78916;SDS011;68315;48.608;11.436;2023-08-06T05:48:39;6.95;;;3.83;;
78916;SDS011;68315;48.608;11.436;2023-08-06T05:51:04;4.38;;;3.15;;
78916;SDS011;68315;48.608;11.436;2023-08-06T05:53:29;4.97;;;3.70;;
78916;SDS011;68315;48.608;11.436;2023-08-06T05:55:55;3.80;;;2.90;;
78916;SDS011;68315;48.608;11.436;2023-08-06T05:58:21;3.20;;;2.90;;
78916;SDS011;68315;48.608;11.436;2023-08-06T06:00:46;5.60;;;2.90;;
78916;SDS011;68315;48.608;11.436;2023-08-06T06:03:11;3.85;;;2.80;;
78916;SDS011;68315;48.608;11.436;2023-08-06T06:05:39;3.55;;;2.65;;
78916;SDS011;68315;48.608;11.436;2023-08-06T06:08:05;2.83;;;2.55;;
78916;SDS011;68315;48.608;11.436;2023-08-06T06:10:30;3.72;;;3.08;;
78916;SDS011;68315;48.608;11.436;2023-08-06T06:12:55;4.10;;;2.80;;
78916;SDS011;68315;48.608;11.436;2023-08-06T06:15:21;3.40;;;2.67;;
78916;SDS011;68315;48.608;11.436;2023-08-06T06:17:46;4.32;;;3.25;;
78916;SDS011;68315;48.608;11.436;2023-08-06T06:20:11;4.68;;;2.88;;
78916;SDS011;68315;48.608;11.436;2023-08-06T06:22:36;3.80;;;3.40;;
78916;SDS011;68315;48.608;11.436;2023-08-06T06:25:02;5.13;;;3.10;;
78916;SDS011;68315;48.608;11.436;2023-08-06T06:27:27;3.17;;;2.70;;
78916;SDS011;68315;48.608;11.436;2023-08-06T06:29:52;5.18;;;2.85;;
78916;SDS011;68315;48.608;11.436;2023-08-06T06:32:19;3.92;;;2.92;;
78916;SDS011;68315;48.608;11.436;2023-08-06T06:34:44;4.72;;;3.10;;
78916;SDS011;68315;48.608;11.436;2023-08-06T06:37:10;3.25;;;2.40;;
78916;SDS011;68315;48.608;11.436;2023-08-06T06:39:35;3.30;;;2.67;;
78916;SDS011;68315;48.608;11.436;2023-08-06T06:42:00;3.55;;;3.00;;
78916;SDS011;68315;48.608;11.436;2023-08-06T06:44:25;3.30;;;3.00;;
78916;SDS011;68315;48.608;11.436;2023-08-06T06:46:50;4.10;;;2.88;;
78916;SDS011;68315;48.608;11.436;2023-08-06T06:49:16;5.03;;;3.00;;
78916;SDS011;68315;48.608;11.436;2023-08-06T06:51:41;3.75;;;2.75;;
78916;SDS011;68315;48.608;11.436;2023-08-06T06:54:06;2.92;;;2.65;;
78916;SDS011;68315;48.608;11.436;2023-08-06T06:56:32;2.45;;;2.25;;
78916;SDS011;68315;48.608;11.436;2023-08-06T06:58:57;4.95;;;3.03;;
78916;SDS011;68315;48.608;11.436;2023-08-06T07:01:22;3.17;;;2.58;;
78916;SDS011;68315;48.608;11.436;2023-08-06T07:03:47;4.05;;;2.72;;
78916;SDS011;68315;48.608;11.436;2023-08-06T07:06:13;2.95;;;2.47;;
78916;SDS011;68315;48.608;11.436;2023-08-06T07:08:38;3.22;;;2.20;;
78916;SDS011;68315;48.608;11.436;2023-08-06T07:11:04;4.55;;;2.13;;
78916;SDS011;68315;48.608;11.436;2023-08-06T07:13:30;3.67;;;2.15;;
78916;SDS011;68315;48.608;11.436;2023-08-06T07:15:56;3.63;;;2.25;;
78916;SDS011;68315;48.608;11.436;2023-08-06T07:18:21;2.55;;;2.20;;
78916;SDS011;68315;48.608;11.436;2023-08-06T07:20:50;2.78;;;2.00;;
78916;SDS011;68315;48.608;11.436;2023-08-06T07:23:16;2.13;;;1.90;;
78916;SDS011;68315;48.608;11.436;2023-08-06T07:25:42;4.28;;;2.60;;
78916;SDS011;68315;48.608;11.436;2023-08-06T07:28:07;2.95;;;1.70;;
78916;SDS011;68315;48.608;11.436;2023-08-06T07:30:33;2.80;;;2.08;;
78916;SDS011;68315;48.608;11.436;2023-08-06T07:32:58;2.28;;;2.08;;
78916;SDS011;68315;48.608;11.436;2023-08-06T07:35:23;3.03;;;2.10;;
78916;SDS011;68315;48.608;11.436;2023-08-06T07:37:49;4.28;;;2.03;;
78916;SDS011;68315;48.608;11.436;2023-08-06T07:40:14;2.63;;;2.20;;
78916;SDS011;68315;48.608;11.436;2023-08-06T07:42:39;3.67;;;1.92;;
78916;SDS011;68315;48.608;11.436;2023-08-06T07:45:05;2.75;;;2.20;;
78916;SDS011;68315;48.608;11.436;2023-08-06T07:47:32;2.45;;;1.98;;
78916;SDS011;68315;48.608;11.436;2023-08-06T07:49:57;5.82;;;2.20;;
78916;SDS011;68315;48.608;11.436;2023-08-06T07:52:22;2.78;;;1.67;;
78916;SDS011;68315;48.608;11.436;2023-08-06T07:54:47;1.83;;;1.70;;
78916;SDS011;68315;48.608;11.436;2023-08-06T07:57:13;2.28;;;1.50;;
78916;SDS011;68315;48.608;11.436;2023-08-06T07:59:39;2.00;;;1.50;;
78916;SDS011;68315;48.608;11.436;2023-08-06T08:02:05;2.22;;;1.40;;
78916;SDS011;68315;48.608;11.436;2023-08-06T08:04:30;3.15;;;1.20;;
78916;SDS011;68315;48.608;11.436;2023-08-06T08:06:56;2.50;;;1.10;;
78916;SDS011;68315;48.608;11.436;2023-08-06T08:09:21;2.20;;;1.40;;
78916;SDS011;68315;48.608;11.436;2023-08-06T08:11:46;1.88;;;1.13;;
78916;SDS011;68315;48.608;11.436;2023-08-06T08:14:12;2.78;;;1.15;;
78916;SDS011;68315;48.608;11.436;2023-08-06T08:16:37;2.17;;;1.00;;
78916;SDS011;68315;48.608;11.436;2023-08-06T08:19:02;2.23;;;1.00;;
78916;SDS011;68315;48.608;11.436;2023-08-06T08:21:29;1.55;;;1.10;;
78916;SDS011;68315;48.608;11.436;2023-08-06T08:23:54;2.47;;;1.15;;
78916;SDS011;68315;48.608;11.436;2023-08-06T08:26:19;3.40;;;1.30;;
78916;SDS011;68315;48.608;11.436;2023-08-06T08:28:44;2.40;;;1.20;;
78916;SDS011;68315;48.608;11.436;2023-08-06T08:31:10;2.03;;;1.17;;
78916;SDS011;68315;48.608;11.436;2023-08-06T08:33:41;1.85;;;1.20;;
78916;SDS011;68315;48.608;11.436;2023-08-06T08:36:07;1.35;;;1.20;;
78916;SDS011;68315;48.608;11.436;2023-08-06T08:38:32;1.10;;;1.00;;
78916;SDS011;68315;48.608;11.436;2023-08-06T08:40:57;1.93;;;1.00;;
78916;SDS011;68315;48.608;11.436;2023-08-06T08:43:22;1.50;;;1.00;;
78916;SDS011;68315;48.608;11.436;2023-08-06T08:45:51;0.80;;;0.80;;
78916;SDS011;68315;48.608;11.436;2023-08-06T08:48:20;3.30;;;1.00;;
78916;SDS011;68315;48.608;11.436;2023-08-06T08:50:47;1.83;;;1.15;;
78916;SDS011;68315;48.608;11.436;2023-08-06T08:53:14;2.40;;;1.25;;
78916;SDS011;68315;48.608;11.436;2023-08-06T08:55:40;2.33;;;1.20;;
78916;SDS011;68315;48.608;11.436;2023-08-06T08:58:08;1.40;;;1.13;;
78916;SDS011;68315;48.608;11.436;2023-08-06T09:00:33;1.70;;;0.93;;
78916;SDS011;68315;48.608;11.436;2023-08-06T09:02:59;1.20;;;1.00;;
78916;SDS011;68315;48.608;11.436;2023-08-06T09:05:26;1.75;;;1.15;;
78916;SDS011;68315;48.608;11.436;2023-08-06T09:07:55;1.35;;;1.25;;
78916;SDS011;68315;48.608;11.436;2023-08-06T09:10:30;2.20;;;0.88;;
78916;SDS011;68315;48.608;11.436;2023-08-06T09:12:56;2.05;;;1.08;;
78916;SDS011;68315;48.608;11.436;2023-08-06T09:15:26;1.10;;;0.90;;
78916;SDS011;68315;48.608;11.436;2023-08-06T09:17:52;1.33;;;0.80;;
78916;SDS011;68315;48.608;11.436;2023-08-06T09:20:18;1.48;;;0.60;;
78916;SDS011;68315;48.608;11.436;2023-08-06T09:22:44;1.13;;;0.68;;
78916;SDS011;68315;48.608;11.436;2023-08-06T09:25:10;2.33;;;0.90;;
78916;SDS011;68315;48.608;11.436;2023-08-06T09:27:36;1.48;;;0.70;;
78916;SDS011;68315;48.608;11.436;2023-08-06T09:30:03;1.40;;;0.70;;
78916;SDS011;68315;48.608;11.436;2023-08-06T09:32:44;2.30;;;0.80;;
78916;SDS011;68315;48.608;11.436;2023-08-06T09:35:14;0.75;;;0.60;;
78916;SDS011;68315;48.608;11.436;2023-08-06T09:37:41;1.08;;;0.70;;
78916;SDS011;68315;48.608;11.436;2023-08-06T09:40:22;1.63;;;0.85;;
78916;SDS011;68315;48.608;11.436;2023-08-06T09:42:49;0.90;;;0.80;;
78916;SDS011;68315;48.608;11.436;2023-08-06T09:45:16;0.85;;;0.73;;
78916;SDS011;68315;48.608;11.436;2023-08-06T09:47:41;1.38;;;0.90;;
78916;SDS011;68315;48.608;11.436;2023-08-06T09:50:14;2.33;;;0.90;;
78916;SDS011;68315;48.608;11.436;2023-08-06T09:52:41;0.82;;;0.70;;
78916;SDS011;68315;48.608;11.436;2023-08-06T09:55:07;3.17;;;0.80;;
78916;SDS011;68315;48.608;11.436;2023-08-06T09:57:32;1.42;;;0.80;;
78916;SDS011;68315;48.608;11.436;2023-08-06T09:59:58;1.10;;;0.80;;
78916;SDS011;68315;48.608;11.436;2023-08-06T10:02:24;0.68;;;0.68;;
78916;SDS011;68315;48.608;11.436;2023-08-06T10:04:51;3.38;;;0.80;;
78916;SDS011;68315;48.608;11.436;2023-08-06T10:07:19;0.60;;;0.60;;
78916;SDS011;68315;48.608;11.436;2023-08-06T10:09:44;2.17;;;0.82;;
78916;SDS011;68315;48.608;11.436;2023-08-06T10:12:09;0.52;;;0.52;;
78916;SDS011;68315;48.608;11.436;2023-08-06T10:14:35;1.58;;;0.60;;
78916;SDS011;68315;48.608;11.436;2023-08-06T10:17:02;0.50;;;0.50;;
78916;SDS011;68315;48.608;11.436;2023-08-06T10:19:28;0.60;;;0.60;;
78916;SDS011;68315;48.608;11.436;2023-08-06T10:22:14;1.13;;;0.50;;
78916;SDS011;68315;48.608;11.436;2023-08-06T10:24:54;1.05;;;0.65;;
78916;SDS011;68315;48.608;11.436;2023-08-06T10:32:50;1.80;;;0.50;;
78916;SDS011;68315;48.608;11.436;2023-08-06T10:35:29;1.77;;;0.55;;
78916;SDS011;68315;48.608;11.436;2023-08-06T10:38:19;2.03;;;0.63;;
78916;SDS011;68315;48.608;11.436;2023-08-06T10:43:28;0.68;;;0.57;;
78916;SDS011;68315;48.608;11.436;2023-08-06T10:45:55;1.50;;;0.65;;
78916;SDS011;68315;48.608;11.436;2023-08-06T10:48:28;1.60;;;0.60;;
78916;SDS011;68315;48.608;11.436;2023-08-06T10:51:04;0.47;;;0.47;;
78916;SDS011;68315;48.608;11.436;2023-08-06T10:53:32;0.70;;;0.43;;
78916;SDS011;68315;48.608;11.436;2023-08-06T10:55:57;1.80;;;0.63;;
78916;SDS011;68315;48.608;11.436;2023-08-06T10:58:23;0.90;;;0.45;;
78916;SDS011;68315;48.608;11.436;2023-08-06T11:00:48;0.63;;;0.60;;
78916;SDS011;68315;48.608;11.436;2023-08-06T11:03:14;0.75;;;0.50;;
78916;SDS011;68315;48.608;11.436;2023-08-06T11:05:39;0.85;;;0.40;;
78916;SDS011;68315;48.608;11.436;2023-08-06T11:08:05;0.37;;;0.37;;
78916;SDS011;68315;48.608;11.436;2023-08-06T11:10:32;0.30;;;0.30;;
78916;SDS011;68315;48.608;11.436;2023-08-06T11:13:00;0.73;;;0.40;;
78916;SDS011;68315;48.608;11.436;2023-08-06T11:15:26;0.30;;;0.30;;
78916;SDS011;68315;48.608;11.436;2023-08-06T11:17:52;0.82;;;0.40;;
78916;SDS011;68315;48.608;11.436;2023-08-06T11:20:17;1.10;;;0.40;;
78916;SDS011;68315;48.608;11.436;2023-08-06T11:22:46;1.08;;;0.35;;
78916;SDS011;68315;48.608;11.436;2023-08-06T11:25:11;0.65;;;0.65;;
78916;SDS011;68315;48.608;11.436;2023-08-06T11:27:36;0.25;;;0.25;;
78916;SDS011;68315;48.608;11.436;2023-08-06T11:30:02;1.55;;;0.30;;
78916;SDS011;68315;48.608;11.436;2023-08-06T11:32:27;0.30;;;0.30;;
78916;SDS011;68315;48.608;11.436;2023-08-06T11:34:53;0.30;;;0.30;;
78916;SDS011;68315;48.608;11.436;2023-08-06T11:37:20;0.30;;;0.20;;
78916;SDS011;68315;48.608;11.436;2023-08-06T11:39:47;0.30;;;0.30;;
78916;SDS011;68315;48.608;11.436;2023-08-06T11:42:13;0.68;;;0.40;;
78916;SDS011;68315;48.608;11.436;2023-08-06T11:44:40;0.30;;;0.30;;
78916;SDS011;68315;48.608;11.436;2023-08-06T11:47:12;0.30;;;0.30;;
78916;SDS011;68315;48.608;11.436;2023-08-06T11:49:48;0.55;;;0.40;;
78916;SDS011;68315;48.608;11.436;2023-08-06T11:52:20;0.30;;;0.30;;
78916;SDS011;68315;48.608;11.436;2023-08-06T11:55:02;0.25;;;0.25;;
78916;SDS011;68315;48.608;11.436;2023-08-06T11:57:33;0.60;;;0.30;;
78916;SDS011;68315;48.608;11.436;2023-08-06T12:00:05;0.60;;;0.30;;
78916;SDS011;68315;48.608;11.436;2023-08-06T12:02:35;1.70;;;0.40;;
78916;SDS011;68315;48.608;11.436;2023-08-06T12:05:20;0.55;;;0.40;;
78916;SDS011;68315;48.608;11.436;2023-08-06T12:07:49;0.50;;;0.30;;
78916;SDS011;68315;48.608;11.436;2023-08-06T12:10:16;0.50;;;0.30;;
78916;SDS011;68315;48.608;11.436;2023-08-06T12:12:44;0.45;;;0.30;;
78916;SDS011;68315;48.608;11.436;2023-08-06T12:15:09;0.20;;;0.20;;
78916;SDS011;68315;48.608;11.436;2023-08-06T12:17:35;1.27;;;0.40;;
78916;SDS011;68315;48.608;11.436;2023-08-06T12:20:00;1.48;;;0.40;;
78916;SDS011;68315;48.608;11.436;2023-08-06T12:22:26;0.40;;;0.30;;
78916;SDS011;68315;48.608;11.436;2023-08-06T12:24:52;0.20;;;0.20;;
78916;SDS011;68315;48.608;11.436;2023-08-06T12:27:17;0.47;;;0.28;;
78916;SDS011;68315;48.608;11.436;2023-08-06T12:29:43;1.48;;;0.45;;
78916;SDS011;68315;48.608;11.436;2023-08-06T12:32:12;2.90;;;0.30;;
78916;SDS011;68315;48.608;11.436;2023-08-06T12:34:38;1.20;;;0.20;;
78916;SDS011;68315;48.608;11.436;2023-08-06T12:37:05;0.70;;;0.50;;
78916;SDS011;68315;48.608;11.436;2023-08-06T12:39:30;0.15;;;0.15;;
78916;SDS011;68315;48.608;11.436;2023-08-06T12:41:56;0.10;;;0.10;;
78916;SDS011;68315;48.608;11.436;2023-08-06T12:44:22;0.20;;;0.20;;
78916;SDS011;68315;48.608;11.436;2023-08-06T12:46:49;0.55;;;0.20;;
78916;SDS011;68315;48.608;11.436;2023-08-06T12:49:14;0.50;;;0.20;;
78916;SDS011;68315;48.608;11.436;2023-08-06T12:51:39;0.20;;;0.20;;
78916;SDS011;68315;48.608;11.436;2023-08-06T12:54:04;0.10;;;0.10;;
78916;SDS011;68315;48.608;11.436;2023-08-06T12:56:31;2.47;;;0.20;;
78916;SDS011;68315;48.608;11.436;2023-08-06T12:58:56;0.50;;;0.20;;
78916;SDS011;68315;48.608;11.436;2023-08-06T13:01:21;0.77;;;0.20;;
78916;SDS011;68315;48.608;11.436;2023-08-06T13:03:47;0.20;;;0.20;;
78916;SDS011;68315;48.608;11.436;2023-08-06T13:06:12;0.20;;;0.20;;
78916;SDS011;68315;48.608;11.436;2023-08-06T13:08:37;0.10;;;0.10;;
78916;SDS011;68315;48.608;11.436;2023-08-06T13:11:03;0.10;;;0.10;;
78916;SDS011;68315;48.608;11.436;2023-08-06T13:13:29;0.50;;;0.20;;
78916;SDS011;68315;48.608;11.436;2023-08-06T13:15:54;1.80;;;0.30;;
78916;SDS011;68315;48.608;11.436;2023-08-06T13:18:19;0.20;;;0.20;;
78916;SDS011;68315;48.608;11.436;2023-08-06T13:20:45;0.35;;;0.20;;
78916;SDS011;68315;48.608;11.436;2023-08-06T13:23:11;0.20;;;0.20;;
78916;SDS011;68315;48.608;11.436;2023-08-06T13:25:40;0.95;;;0.20;;
78916;SDS011;68315;48.608;11.436;2023-08-06T13:28:05;1.45;;;0.30;;
78916;SDS011;68315;48.608;11.436;2023-08-06T13:30:31;0.30;;;0.30;;
78916;SDS011;68315;48.608;11.436;2023-08-06T13:32:56;0.30;;;0.20;;
78916;SDS011;68315;48.608;11.436;2023-08-06T13:35:22;0.88;;;0.20;;
78916;SDS011;68315;48.608;11.436;2023-08-06T13:37:48;0.30;;;0.30;;
78916;SDS011;68315;48.608;11.436;2023-08-06T13:40:13;1.55;;;0.30;;
78916;SDS011;68315;48.608;11.436;2023-08-06T13:42:38;1.15;;;0.20;;
78916;SDS011;68315;48.608;11.436;2023-08-06T13:45:04;0.10;;;0.10;;
78916;SDS011;68315;48.608;11.436;2023-08-06T13:47:31;0.20;;;0.20;;
78916;SDS011;68315;48.608;11.436;2023-08-06T13:49:56;0.10;;;0.10;;
78916;SDS011;68315;48.608;11.436;2023-08-06T13:52:21;0.30;;;0.30;;
78916;SDS011;68315;48.608;11.436;2023-08-06T13:54:46;0.10;;;0.10;;
78916;SDS011;68315;48.608;11.436;2023-08-06T13:57:12;0.55;;;0.22;;
78916;SDS011;68315;48.608;11.436;2023-08-06T13:59:37;1.15;;;0.45;;
78916;SDS011;68315;48.608;11.436;2023-08-06T14:02:03;0.70;;;0.20;;
78916;SDS011;68315;48.608;11.436;2023-08-06T14:04:28;1.02;;;0.30;;
78916;SDS011;68315;48.608;11.436;2023-08-06T14:06:53;0.30;;;0.30;;
78916;SDS011;68315;48.608;11.436;2023-08-06T14:09:19;0.30;;;0.30;;
78916;SDS011;68315;48.608;11.436;2023-08-06T14:11:44;0.60;;;0.40;;
78916;SDS011;68315;48.608;11.436;2023-08-06T14:14:10;2.20;;;0.30;;
78916;SDS011;68315;48.608;11.436;2023-08-06T14:16:35;0.52;;;0.40;;
78916;SDS011;68315;48.608;11.436;2023-08-06T14:19:01;0.82;;;0.40;;
78916;SDS011;68315;48.608;11.436;2023-08-06T14:21:26;0.75;;;0.47;;
78916;SDS011;68315;48.608;11.436;2023-08-06T14:23:52;1.33;;;0.40;;
78916;SDS011;68315;48.608;11.436;2023-08-06T14:26:17;1.00;;;0.45;;
78916;SDS011;68315;48.608;11.436;2023-08-06T14:28:43;0.40;;;0.35;;
78916;SDS011;68315;48.608;11.436;2023-08-06T14:31:08;0.30;;;0.30;;
78916;SDS011;68315;48.608;11.436;2023-08-06T14:33:33;3.00;;;0.70;;
78916;SDS011;68315;48.608;11.436;2023-08-06T14:35:59;1.35;;;0.50;;
78916;SDS011;68315;48.608;11.436;2023-08-06T14:38:24;0.95;;;0.60;;